sensor_id;sensor_type;location;lat;lon;timestamp;temperature;humidity
13982;DHT22;7065;50.880;5.502;2022-09-30T00:01:39;5.20;99.90
13982;DHT22;7065;50.880;5.502;2022-09-30T00:04:08;5.30;99.90
13982;DHT22;7065;50.880;5.502;2022-09-30T00:06:34;5.30;99.90
13982;DHT22;7065;50.880;5.502;2022-09-30T00:09:00;5.30;99.90
13982;DHT22;7065;50.880;5.502;2022-09-30T00:11:31;5.30;99.90
13982;DHT22;7065;50.880;5.502;2022-09-30T00:13:57;5.30;99.90
13982;DHT22;7065;50.880;5.502;2022-09-30T00:16:26;5.30;99.90
13982;DHT22;7065;50.880;5.502;2022-09-30T00:18:54;5.30;99.90
13982;DHT22;7065;50.880;5.502;2022-09-30T00:21:20;5.30;99.90
13982;DHT22;7065;50.880;5.502;2022-09-30T00:23:46;5.30;99.90
13982;DHT22;7065;50.880;5.502;2022-09-30T00:26:17;5.30;99.90
13982;DHT22;7065;50.880;5.502;2022-09-30T00:28:44;5.20;99.90
13982;DHT22;7065;50.880;5.502;2022-09-30T00:31:12;5.20;99.90
13982;DHT22;7065;50.880;5.502;2022-09-30T00:33:39;5.10;99.90
13982;DHT22;7065;50.880;5.502;2022-09-30T00:36:05;5.10;99.90
13982;DHT22;7065;50.880;5.502;2022-09-30T00:38:31;5.00;99.90
13982;DHT22;7065;50.880;5.502;2022-09-30T00:40:59;5.00;99.90
13982;DHT22;7065;50.880;5.502;2022-09-30T00:43:46;5.00;99.90
13982;DHT22;7065;50.880;5.502;2022-09-30T00:48:48;5.10;99.90
13982;DHT22;7065;50.880;5.502;2022-09-30T00:51:23;5.10;99.90
13982;DHT22;7065;50.880;5.502;2022-09-30T00:53:59;5.10;99.90
13982;DHT22;7065;50.880;5.502;2022-09-30T00:56:30;5.10;99.90
13982;DHT22;7065;50.880;5.502;2022-09-30T00:59:20;5.10;99.90
13982;DHT22;7065;50.880;5.502;2022-09-30T01:01:48;5.10;99.90
13982;DHT22;7065;50.880;5.502;2022-09-30T01:04:16;5.10;99.90
13982;DHT22;7065;50.880;5.502;2022-09-30T01:06:45;5.10;99.90
13982;DHT22;7065;50.880;5.502;2022-09-30T01:09:11;5.10;99.90
13982;DHT22;7065;50.880;5.502;2022-09-30T01:11:37;5.10;99.90
13982;DHT22;7065;50.880;5.502;2022-09-30T01:14:17;5.10;99.90
13982;DHT22;7065;50.880;5.502;2022-09-30T01:28:03;5.00;99.90
13982;DHT22;7065;50.880;5.502;2022-09-30T01:33:54;5.00;99.90
13982;DHT22;7065;50.880;5.502;2022-09-30T01:41:50;5.00;99.90
13982;DHT22;7065;50.880;5.502;2022-09-30T01:47:24;5.10;99.90
13982;DHT22;7065;50.880;5.502;2022-09-30T01:49:58;5.10;99.90
13982;DHT22;7065;50.880;5.502;2022-09-30T01:55:18;5.00;99.90
13982;DHT22;7065;50.880;5.502;2022-09-30T01:57:55;5.00;99.90
13982;DHT22;7065;50.880;5.502;2022-09-30T02:00:23;5.00;99.90
13982;DHT22;7065;50.880;5.502;2022-09-30T02:02:57;5.00;99.90
13982;DHT22;7065;50.880;5.502;2022-09-30T02:05:35;5.10;99.90
13982;DHT22;7065;50.880;5.502;2022-09-30T02:08:10;5.00;99.90
13982;DHT22;7065;50.880;5.502;2022-09-30T02:10:43;5.00;99.90
13982;DHT22;7065;50.880;5.502;2022-09-30T02:13:21;5.00;99.90
13982;DHT22;7065;50.880;5.502;2022-09-30T02:15:55;5.00;99.90
13982;DHT22;7065;50.880;5.502;2022-09-30T02:18:28;5.00;99.90
13982;DHT22;7065;50.880;5.502;2022-09-30T02:20:59;5.00;99.90
13982;DHT22;7065;50.880;5.502;2022-09-30T02:23:28;5.00;99.90
13982;DHT22;7065;50.880;5.502;2022-09-30T02:26:02;5.00;99.90
13982;DHT22;7065;50.880;5.502;2022-09-30T02:28:35;5.00;99.90
13982;DHT22;7065;50.880;5.502;2022-09-30T02:31:03;5.00;99.90
13982;DHT22;7065;50.880;5.502;2022-09-30T02:36:29;5.00;99.90
13982;DHT22;7065;50.880;5.502;2022-09-30T02:39:03;5.10;99.90
13982;DHT22;7065;50.880;5.502;2022-09-30T02:41:33;5.10;99.90
13982;DHT22;7065;50.880;5.502;2022-09-30T02:44:01;5.10;99.90
13982;DHT22;7065;50.880;5.502;2022-09-30T02:46:45;5.10;99.90
13982;DHT22;7065;50.880;5.502;2022-09-30T02:49:26;5.10;99.90
13982;DHT22;7065;50.880;5.502;2022-09-30T03:00:07;5.10;99.90
13982;DHT22;7065;50.880;5.502;2022-09-30T03:02:34;5.00;99.90
13982;DHT22;7065;50.880;5.502;2022-09-30T03:04:59;5.00;99.90
13982;DHT22;7065;50.880;5.502;2022-09-30T03:07:26;5.00;99.90
13982;DHT22;7065;50.880;5.502;2022-09-30T03:09:56;4.90;99.90
13982;DHT22;7065;50.880;5.502;2022-09-30T03:19:09;4.80;99.90
13982;DHT22;7065;50.880;5.502;2022-09-30T03:27:24;4.80;99.90
13982;DHT22;7065;50.880;5.502;2022-09-30T03:30:00;4.80;99.90
13982;DHT22;7065;50.880;5.502;2022-09-30T03:41:10;4.80;99.90
13982;DHT22;7065;50.880;5.502;2022-09-30T03:48:38;4.70;99.90
13982;DHT22;7065;50.880;5.502;2022-09-30T03:51:05;4.70;99.90
13982;DHT22;7065;50.880;5.502;2022-09-30T03:53:38;4.70;99.90
13982;DHT22;7065;50.880;5.502;2022-09-30T03:56:04;4.70;99.90
13982;DHT22;7065;50.880;5.502;2022-09-30T03:58:29;4.70;99.90
13982;DHT22;7065;50.880;5.502;2022-09-30T04:00:55;4.60;99.90
13982;DHT22;7065;50.880;5.502;2022-09-30T04:03:22;4.50;99.90
13982;DHT22;7065;50.880;5.502;2022-09-30T04:05:48;4.40;99.90
13982;DHT22;7065;50.880;5.502;2022-09-30T04:08:15;4.40;99.90
13982;DHT22;7065;50.880;5.502;2022-09-30T04:10:41;4.40;99.90
13982;DHT22;7065;50.880;5.502;2022-09-30T04:13:08;4.40;99.90
13982;DHT22;7065;50.880;5.502;2022-09-30T04:15:35;4.40;99.90
13982;DHT22;7065;50.880;5.502;2022-09-30T04:18:03;4.40;99.90
13982;DHT22;7065;50.880;5.502;2022-09-30T04:20:29;4.40;99.90
13982;DHT22;7065;50.880;5.502;2022-09-30T04:23:01;4.40;99.90
13982;DHT22;7065;50.880;5.502;2022-09-30T04:25:27;4.30;99.90
13982;DHT22;7065;50.880;5.502;2022-09-30T04:27:53;4.30;99.90
13982;DHT22;7065;50.880;5.502;2022-09-30T04:30:20;4.30;99.90
13982;DHT22;7065;50.880;5.502;2022-09-30T04:32:45;4.20;99.90
13982;DHT22;7065;50.880;5.502;2022-09-30T04:35:12;4.20;99.90
13982;DHT22;7065;50.880;5.502;2022-09-30T04:37:42;4.20;99.90
13982;DHT22;7065;50.880;5.502;2022-09-30T04:40:08;4.10;99.90
13982;DHT22;7065;50.880;5.502;2022-09-30T04:42:36;4.10;99.90
13982;DHT22;7065;50.880;5.502;2022-09-30T04:45:02;4.10;99.90
13982;DHT22;7065;50.880;5.502;2022-09-30T04:47:28;4.10;99.90
13982;DHT22;7065;50.880;5.502;2022-09-30T04:49:54;4.10;99.90
13982;DHT22;7065;50.880;5.502;2022-09-30T04:52:20;4.10;99.90
13982;DHT22;7065;50.880;5.502;2022-09-30T04:54:46;4.20;99.90
13982;DHT22;7065;50.880;5.502;2022-09-30T04:57:12;4.20;99.90
13982;DHT22;7065;50.880;5.502;2022-09-30T04:59:38;4.20;99.90
13982;DHT22;7065;50.880;5.502;2022-09-30T05:02:04;4.20;99.90
13982;DHT22;7065;50.880;5.502;2022-09-30T05:04:30;4.20;99.90
13982;DHT22;7065;50.880;5.502;2022-09-30T05:06:58;4.10;99.90
13982;DHT22;7065;50.880;5.502;2022-09-30T05:09:26;4.10;99.90
13982;DHT22;7065;50.880;5.502;2022-09-30T05:11:51;4.10;99.90
13982;DHT22;7065;50.880;5.502;2022-09-30T05:14:17;4.10;99.90
13982;DHT22;7065;50.880;5.502;2022-09-30T05:16:43;4.00;99.90
13982;DHT22;7065;50.880;5.502;2022-09-30T05:19:09;4.00;99.90
13982;DHT22;7065;50.880;5.502;2022-09-30T05:21:35;4.00;99.90
13982;DHT22;7065;50.880;5.502;2022-09-30T05:24:01;4.00;99.90
13982;DHT22;7065;50.880;5.502;2022-09-30T05:26:27;4.00;99.90
13982;DHT22;7065;50.880;5.502;2022-09-30T05:28:52;3.90;99.90
13982;DHT22;7065;50.880;5.502;2022-09-30T05:31:19;3.90;99.90
13982;DHT22;7065;50.880;5.502;2022-09-30T05:33:47;3.90;99.90
13982;DHT22;7065;50.880;5.502;2022-09-30T05:36:14;3.80;99.90
13982;DHT22;7065;50.880;5.502;2022-09-30T05:38:41;3.80;99.90
13982;DHT22;7065;50.880;5.502;2022-09-30T05:41:12;3.70;99.90
13982;DHT22;7065;50.880;5.502;2022-09-30T05:43:39;3.80;99.90
13982;DHT22;7065;50.880;5.502;2022-09-30T05:46:06;3.80;99.90
13982;DHT22;7065;50.880;5.502;2022-09-30T05:48:32;3.80;99.90
13982;DHT22;7065;50.880;5.502;2022-09-30T05:50:58;3.80;99.90
13982;DHT22;7065;50.880;5.502;2022-09-30T05:53:25;3.90;99.90
13982;DHT22;7065;50.880;5.502;2022-09-30T05:55:53;3.90;99.90
13982;DHT22;7065;50.880;5.502;2022-09-30T05:58:19;3.90;99.90
13982;DHT22;7065;50.880;5.502;2022-09-30T06:00:46;3.90;99.90
13982;DHT22;7065;50.880;5.502;2022-09-30T06:03:13;3.90;99.90
13982;DHT22;7065;50.880;5.502;2022-09-30T06:08:13;3.90;99.90
13982;DHT22;7065;50.880;5.502;2022-09-30T06:10:40;3.90;99.90
13982;DHT22;7065;50.880;5.502;2022-09-30T06:13:06;3.90;99.90
13982;DHT22;7065;50.880;5.502;2022-09-30T06:15:32;4.00;99.90
13982;DHT22;7065;50.880;5.502;2022-09-30T06:17:58;4.00;99.90
13982;DHT22;7065;50.880;5.502;2022-09-30T06:20:24;4.00;99.90
13982;DHT22;7065;50.880;5.502;2022-09-30T06:22:50;4.00;99.90
13982;DHT22;7065;50.880;5.502;2022-09-30T06:25:16;4.10;99.90
13982;DHT22;7065;50.880;5.502;2022-09-30T06:27:45;4.10;99.90
13982;DHT22;7065;50.880;5.502;2022-09-30T06:30:14;4.20;99.90
13982;DHT22;7065;50.880;5.502;2022-09-30T06:32:40;4.30;99.90
13982;DHT22;7065;50.880;5.502;2022-09-30T06:35:07;4.40;99.90
13982;DHT22;7065;50.880;5.502;2022-09-30T06:37:33;4.40;99.90
13982;DHT22;7065;50.880;5.502;2022-09-30T06:40:02;4.50;99.90
13982;DHT22;7065;50.880;5.502;2022-09-30T06:42:28;4.60;99.90
13982;DHT22;7065;50.880;5.502;2022-09-30T06:44:54;4.60;99.90
13982;DHT22;7065;50.880;5.502;2022-09-30T06:47:20;4.70;99.90
13982;DHT22;7065;50.880;5.502;2022-09-30T06:49:46;4.70;99.90
13982;DHT22;7065;50.880;5.502;2022-09-30T06:52:12;4.80;99.90
13982;DHT22;7065;50.880;5.502;2022-09-30T06:54:41;4.90;99.90
13982;DHT22;7065;50.880;5.502;2022-09-30T06:57:08;5.00;99.90
13982;DHT22;7065;50.880;5.502;2022-09-30T06:59:34;5.10;99.90
13982;DHT22;7065;50.880;5.502;2022-09-30T07:02:00;5.20;99.90
13982;DHT22;7065;50.880;5.502;2022-09-30T07:04:25;5.30;99.90
13982;DHT22;7065;50.880;5.502;2022-09-30T07:06:51;5.30;99.90
13982;DHT22;7065;50.880;5.502;2022-09-30T07:09:17;5.40;99.90
13982;DHT22;7065;50.880;5.502;2022-09-30T07:11:43;5.50;99.90
13982;DHT22;7065;50.880;5.502;2022-09-30T07:14:09;5.60;99.90
13982;DHT22;7065;50.880;5.502;2022-09-30T07:16:37;5.70;99.90
13982;DHT22;7065;50.880;5.502;2022-09-30T07:19:04;5.80;99.90
13982;DHT22;7065;50.880;5.502;2022-09-30T07:21:31;5.90;99.90
13982;DHT22;7065;50.880;5.502;2022-09-30T07:23:57;6.00;99.90
13982;DHT22;7065;50.880;5.502;2022-09-30T07:26:24;6.10;99.90
13982;DHT22;7065;50.880;5.502;2022-09-30T07:28:51;6.20;99.90
13982;DHT22;7065;50.880;5.502;2022-09-30T07:31:22;6.30;99.90
13982;DHT22;7065;50.880;5.502;2022-09-30T07:33:49;6.40;99.90
13982;DHT22;7065;50.880;5.502;2022-09-30T07:36:20;6.50;99.90
13982;DHT22;7065;50.880;5.502;2022-09-30T07:38:51;6.60;99.90
13982;DHT22;7065;50.880;5.502;2022-09-30T07:41:23;6.70;99.90
13982;DHT22;7065;50.880;5.502;2022-09-30T07:43:53;6.80;99.90
13982;DHT22;7065;50.880;5.502;2022-09-30T07:46:24;6.90;99.90
13982;DHT22;7065;50.880;5.502;2022-09-30T07:48:52;7.00;99.90
13982;DHT22;7065;50.880;5.502;2022-09-30T07:51:26;7.10;99.90
13982;DHT22;7065;50.880;5.502;2022-09-30T07:53:56;7.20;99.90
13982;DHT22;7065;50.880;5.502;2022-09-30T07:56:23;7.30;99.90
13982;DHT22;7065;50.880;5.502;2022-09-30T07:58:53;7.50;99.90
13982;DHT22;7065;50.880;5.502;2022-09-30T08:01:20;7.70;99.90
13982;DHT22;7065;50.880;5.502;2022-09-30T08:03:46;7.80;99.90
13982;DHT22;7065;50.880;5.502;2022-09-30T08:06:17;8.00;99.90
13982;DHT22;7065;50.880;5.502;2022-09-30T08:08:44;8.10;99.90
13982;DHT22;7065;50.880;5.502;2022-09-30T08:11:11;8.20;99.90
13982;DHT22;7065;50.880;5.502;2022-09-30T08:13:38;8.10;99.90
13982;DHT22;7065;50.880;5.502;2022-09-30T08:16:04;8.20;99.90
13982;DHT22;7065;50.880;5.502;2022-09-30T08:18:31;8.30;99.90
13982;DHT22;7065;50.880;5.502;2022-09-30T08:21:01;8.30;99.90
13982;DHT22;7065;50.880;5.502;2022-09-30T08:23:28;8.40;99.90
13982;DHT22;7065;50.880;5.502;2022-09-30T08:26:00;8.50;99.90
13982;DHT22;7065;50.880;5.502;2022-09-30T08:28:27;8.60;99.90
13982;DHT22;7065;50.880;5.502;2022-09-30T08:30:55;8.70;99.90
13982;DHT22;7065;50.880;5.502;2022-09-30T08:33:27;8.80;99.90
13982;DHT22;7065;50.880;5.502;2022-09-30T08:35:52;8.80;99.90
13982;DHT22;7065;50.880;5.502;2022-09-30T08:38:18;8.90;99.90
13982;DHT22;7065;50.880;5.502;2022-09-30T08:40:58;9.00;99.90
13982;DHT22;7065;50.880;5.502;2022-09-30T08:52:21;9.60;99.90
13982;DHT22;7065;50.880;5.502;2022-09-30T08:54:51;9.60;99.90
13982;DHT22;7065;50.880;5.502;2022-09-30T08:57:19;9.70;99.90
13982;DHT22;7065;50.880;5.502;2022-09-30T08:59:54;9.80;99.90
13982;DHT22;7065;50.880;5.502;2022-09-30T09:02:24;10.00;99.90
13982;DHT22;7065;50.880;5.502;2022-09-30T09:04:53;10.10;99.90
13982;DHT22;7065;50.880;5.502;2022-09-30T09:10:18;10.30;99.90
13982;DHT22;7065;50.880;5.502;2022-09-30T09:18:28;10.40;99.90
13982;DHT22;7065;50.880;5.502;2022-09-30T09:21:07;10.50;99.90
13982;DHT22;7065;50.880;5.502;2022-09-30T09:23:37;10.60;99.90
13982;DHT22;7065;50.880;5.502;2022-09-30T09:26:03;10.70;99.90
13982;DHT22;7065;50.880;5.502;2022-09-30T09:28:39;10.90;99.90
13982;DHT22;7065;50.880;5.502;2022-09-30T09:31:12;11.00;99.90
13982;DHT22;7065;50.880;5.502;2022-09-30T09:33:39;11.10;99.90
13982;DHT22;7065;50.880;5.502;2022-09-30T09:36:37;11.20;99.90
13982;DHT22;7065;50.880;5.502;2022-09-30T09:47:11;11.50;99.90
13982;DHT22;7065;50.880;5.502;2022-09-30T09:49:46;11.60;99.90
13982;DHT22;7065;50.880;5.502;2022-09-30T09:52:43;11.60;99.90
13982;DHT22;7065;50.880;5.502;2022-09-30T09:55:17;11.70;99.90
13982;DHT22;7065;50.880;5.502;2022-09-30T09:57:44;11.70;99.90
13982;DHT22;7065;50.880;5.502;2022-09-30T10:00:11;11.70;99.90
13982;DHT22;7065;50.880;5.502;2022-09-30T10:03:18;11.80;99.90
13982;DHT22;7065;50.880;5.502;2022-09-30T10:06:06;11.90;99.90
13982;DHT22;7065;50.880;5.502;2022-09-30T10:08:52;12.00;99.90
13982;DHT22;7065;50.880;5.502;2022-09-30T10:11:23;12.10;99.90
13982;DHT22;7065;50.880;5.502;2022-09-30T10:13:50;12.20;99.90
13982;DHT22;7065;50.880;5.502;2022-09-30T10:16:34;12.20;99.90
13982;DHT22;7065;50.880;5.502;2022-09-30T10:19:01;12.30;99.90
13982;DHT22;7065;50.880;5.502;2022-09-30T10:21:29;12.40;99.90
13982;DHT22;7065;50.880;5.502;2022-09-30T10:23:55;12.40;99.90
13982;DHT22;7065;50.880;5.502;2022-09-30T10:26:24;12.40;99.90
13982;DHT22;7065;50.880;5.502;2022-09-30T10:28:53;12.40;99.90
13982;DHT22;7065;50.880;5.502;2022-09-30T10:31:41;12.40;99.90
13982;DHT22;7065;50.880;5.502;2022-09-30T10:36:39;12.60;99.90
13982;DHT22;7065;50.880;5.502;2022-09-30T10:39:20;12.70;99.90
13982;DHT22;7065;50.880;5.502;2022-09-30T10:41:49;12.70;99.90
13982;DHT22;7065;50.880;5.502;2022-09-30T10:44:18;12.80;99.90
13982;DHT22;7065;50.880;5.502;2022-09-30T10:46:47;13.00;99.90
13982;DHT22;7065;50.880;5.502;2022-09-30T10:49:29;13.00;99.90
13982;DHT22;7065;50.880;5.502;2022-09-30T10:51:58;13.10;99.90
13982;DHT22;7065;50.880;5.502;2022-09-30T10:54:53;13.20;99.90
13982;DHT22;7065;50.880;5.502;2022-09-30T10:57:26;13.40;99.90
13982;DHT22;7065;50.880;5.502;2022-09-30T11:00:07;13.50;99.90
13982;DHT22;7065;50.880;5.502;2022-09-30T11:02:56;13.70;99.90
13982;DHT22;7065;50.880;5.502;2022-09-30T11:05:41;13.80;99.90
13982;DHT22;7065;50.880;5.502;2022-09-30T11:10:45;14.00;99.90
13982;DHT22;7065;50.880;5.502;2022-09-30T11:13:22;14.20;99.90
13982;DHT22;7065;50.880;5.502;2022-09-30T11:24:19;13.90;99.90
13982;DHT22;7065;50.880;5.502;2022-09-30T11:35:35;14.40;99.90
13982;DHT22;7065;50.880;5.502;2022-09-30T11:38:31;14.60;99.90
13982;DHT22;7065;50.880;5.502;2022-09-30T11:50:17;14.50;99.90
13982;DHT22;7065;50.880;5.502;2022-09-30T11:58:09;14.60;99.90
13982;DHT22;7065;50.880;5.502;2022-09-30T12:00:40;14.90;99.90
13982;DHT22;7065;50.880;5.502;2022-09-30T12:03:19;15.00;99.90
13982;DHT22;7065;50.880;5.502;2022-09-30T12:05:48;15.20;99.90
13982;DHT22;7065;50.880;5.502;2022-09-30T12:08:33;15.20;99.90
13982;DHT22;7065;50.880;5.502;2022-09-30T12:13:38;15.00;99.90
13982;DHT22;7065;50.880;5.502;2022-09-30T12:16:13;14.80;99.90
13982;DHT22;7065;50.880;5.502;2022-09-30T12:18:50;14.60;99.90
13982;DHT22;7065;50.880;5.502;2022-09-30T12:23:53;14.60;99.90
13982;DHT22;7065;50.880;5.502;2022-09-30T12:26:23;14.60;99.90
13982;DHT22;7065;50.880;5.502;2022-09-30T12:29:52;14.80;99.90
13982;DHT22;7065;50.880;5.502;2022-09-30T12:38:52;15.40;99.90
13982;DHT22;7065;50.880;5.502;2022-09-30T12:43:49;15.60;99.90
13982;DHT22;7065;50.880;5.502;2022-09-30T12:49:22;15.20;99.90
13982;DHT22;7065;50.880;5.502;2022-09-30T12:51:53;15.20;99.90
13982;DHT22;7065;50.880;5.502;2022-09-30T12:54:42;15.40;99.90
13982;DHT22;7065;50.880;5.502;2022-09-30T12:57:08;15.50;99.90
13982;DHT22;7065;50.880;5.502;2022-09-30T12:59:37;15.40;99.90
13982;DHT22;7065;50.880;5.502;2022-09-30T13:10:31;16.00;99.90
13982;DHT22;7065;50.880;5.502;2022-09-30T13:26:33;15.80;99.90
13982;DHT22;7065;50.880;5.502;2022-09-30T13:31:29;15.90;99.90
13982;DHT22;7065;50.880;5.502;2022-09-30T13:41:53;16.20;99.90
13982;DHT22;7065;50.880;5.502;2022-09-30T13:47:16;16.10;99.90
13982;DHT22;7065;50.880;5.502;2022-09-30T13:49:59;16.10;99.90
13982;DHT22;7065;50.880;5.502;2022-09-30T13:52:33;16.30;99.90
13982;DHT22;7065;50.880;5.502;2022-09-30T13:55:25;16.50;99.90
13982;DHT22;7065;50.880;5.502;2022-09-30T14:11:25;16.20;99.90
13982;DHT22;7065;50.880;5.502;2022-09-30T14:14:33;16.20;99.90
13982;DHT22;7065;50.880;5.502;2022-09-30T14:22:39;15.90;99.90
13982;DHT22;7065;50.880;5.502;2022-09-30T14:25:17;15.90;99.90
13982;DHT22;7065;50.880;5.502;2022-09-30T14:28:06;16.00;99.90
13982;DHT22;7065;50.880;5.502;2022-09-30T14:30:39;16.00;99.90
13982;DHT22;7065;50.880;5.502;2022-09-30T14:33:11;16.00;99.90
13982;DHT22;7065;50.880;5.502;2022-09-30T14:35:42;15.90;99.90
13982;DHT22;7065;50.880;5.502;2022-09-30T14:38:18;15.90;99.90
13982;DHT22;7065;50.880;5.502;2022-09-30T14:40:53;15.80;99.90
13982;DHT22;7065;50.880;5.502;2022-09-30T14:43:26;15.80;99.90
13982;DHT22;7065;50.880;5.502;2022-09-30T14:45:56;15.70;99.90
13982;DHT22;7065;50.880;5.502;2022-09-30T14:48:28;15.70;99.90
13982;DHT22;7065;50.880;5.502;2022-09-30T14:51:01;15.80;99.90
13982;DHT22;7065;50.880;5.502;2022-09-30T14:53:32;16.10;99.90
13982;DHT22;7065;50.880;5.502;2022-09-30T14:56:00;16.30;99.90
13982;DHT22;7065;50.880;5.502;2022-09-30T14:58:36;16.50;99.90
13982;DHT22;7065;50.880;5.502;2022-09-30T15:01:14;16.60;99.90
13982;DHT22;7065;50.880;5.502;2022-09-30T15:03:44;16.60;99.90
13982;DHT22;7065;50.880;5.502;2022-09-30T15:06:22;16.70;99.90
13982;DHT22;7065;50.880;5.502;2022-09-30T15:08:49;16.70;99.90
13982;DHT22;7065;50.880;5.502;2022-09-30T15:11:18;16.70;99.90
13982;DHT22;7065;50.880;5.502;2022-09-30T15:13:44;16.70;99.90
13982;DHT22;7065;50.880;5.502;2022-09-30T15:16:24;16.70;99.90
13982;DHT22;7065;50.880;5.502;2022-09-30T15:18:50;16.80;99.90
13982;DHT22;7065;50.880;5.502;2022-09-30T15:21:18;16.80;99.90
13982;DHT22;7065;50.880;5.502;2022-09-30T15:23:48;16.80;99.90
13982;DHT22;7065;50.880;5.502;2022-09-30T15:26:18;16.90;99.90
13982;DHT22;7065;50.880;5.502;2022-09-30T15:28:45;17.00;99.90
13982;DHT22;7065;50.880;5.502;2022-09-30T15:31:20;17.10;99.90
13982;DHT22;7065;50.880;5.502;2022-09-30T15:33:47;17.20;99.90
13982;DHT22;7065;50.880;5.502;2022-09-30T15:36:17;17.30;99.90
13982;DHT22;7065;50.880;5.502;2022-09-30T15:38:50;17.30;99.90
13982;DHT22;7065;50.880;5.502;2022-09-30T15:41:17;17.30;99.90
13982;DHT22;7065;50.880;5.502;2022-09-30T15:43:44;17.30;99.90
13982;DHT22;7065;50.880;5.502;2022-09-30T15:46:30;17.20;99.90
13982;DHT22;7065;50.880;5.502;2022-09-30T15:49:02;17.20;99.90
13982;DHT22;7065;50.880;5.502;2022-09-30T15:51:38;17.10;99.90
13982;DHT22;7065;50.880;5.502;2022-09-30T15:54:27;17.20;99.90
13982;DHT22;7065;50.880;5.502;2022-09-30T15:57:00;17.10;99.90
13982;DHT22;7065;50.880;5.502;2022-09-30T15:59:56;17.10;99.90
13982;DHT22;7065;50.880;5.502;2022-09-30T16:02:23;17.10;99.90
13982;DHT22;7065;50.880;5.502;2022-09-30T16:04:50;16.90;99.90
13982;DHT22;7065;50.880;5.502;2022-09-30T16:07:17;16.80;99.90
13982;DHT22;7065;50.880;5.502;2022-09-30T16:09:49;16.70;99.90
13982;DHT22;7065;50.880;5.502;2022-09-30T16:12:20;16.60;99.90
13982;DHT22;7065;50.880;5.502;2022-09-30T16:14:53;16.40;99.90
13982;DHT22;7065;50.880;5.502;2022-09-30T16:17:30;16.30;99.90
13982;DHT22;7065;50.880;5.502;2022-09-30T16:19:59;16.20;99.90
13982;DHT22;7065;50.880;5.502;2022-09-30T16:25:30;15.90;99.90
13982;DHT22;7065;50.880;5.502;2022-09-30T16:28:09;15.80;99.90
13982;DHT22;7065;50.880;5.502;2022-09-30T16:30:44;15.80;99.90
13982;DHT22;7065;50.880;5.502;2022-09-30T16:33:13;15.60;99.90
13982;DHT22;7065;50.880;5.502;2022-09-30T16:35:40;15.50;99.90
13982;DHT22;7065;50.880;5.502;2022-09-30T16:38:08;15.50;99.90
13982;DHT22;7065;50.880;5.502;2022-09-30T16:40:36;15.40;99.90
13982;DHT22;7065;50.880;5.502;2022-09-30T16:43:02;15.30;99.90
13982;DHT22;7065;50.880;5.502;2022-09-30T16:45:30;15.20;99.90
13982;DHT22;7065;50.880;5.502;2022-09-30T16:47:57;15.20;99.90
13982;DHT22;7065;50.880;5.502;2022-09-30T16:53:08;15.10;99.90
13982;DHT22;7065;50.880;5.502;2022-09-30T16:55:37;15.00;99.90
13982;DHT22;7065;50.880;5.502;2022-09-30T16:58:04;14.90;99.90
13982;DHT22;7065;50.880;5.502;2022-09-30T17:00:30;14.80;99.90
13982;DHT22;7065;50.880;5.502;2022-09-30T17:02:56;14.80;99.90
13982;DHT22;7065;50.880;5.502;2022-09-30T17:05:24;14.70;99.90
13982;DHT22;7065;50.880;5.502;2022-09-30T17:07:55;14.70;99.90
13982;DHT22;7065;50.880;5.502;2022-09-30T17:12:50;14.50;99.90
13982;DHT22;7065;50.880;5.502;2022-09-30T17:15:18;14.40;99.90
13982;DHT22;7065;50.880;5.502;2022-09-30T17:17:45;14.30;99.90
13982;DHT22;7065;50.880;5.502;2022-09-30T17:20:11;14.30;99.90
13982;DHT22;7065;50.880;5.502;2022-09-30T17:22:38;14.30;99.90
13982;DHT22;7065;50.880;5.502;2022-09-30T17:25:04;14.20;99.90
13982;DHT22;7065;50.880;5.502;2022-09-30T17:27:30;14.20;99.90
13982;DHT22;7065;50.880;5.502;2022-09-30T17:29:56;14.20;99.90
13982;DHT22;7065;50.880;5.502;2022-09-30T17:32:21;14.00;99.90
13982;DHT22;7065;50.880;5.502;2022-09-30T17:34:48;14.00;99.90
13982;DHT22;7065;50.880;5.502;2022-09-30T17:37:13;13.90;99.90
13982;DHT22;7065;50.880;5.502;2022-09-30T17:39:39;13.90;99.90
13982;DHT22;7065;50.880;5.502;2022-09-30T17:42:08;13.80;99.90
13982;DHT22;7065;50.880;5.502;2022-09-30T17:44:54;13.80;99.90
13982;DHT22;7065;50.880;5.502;2022-09-30T17:47:20;13.70;99.90
13982;DHT22;7065;50.880;5.502;2022-09-30T17:49:46;13.70;99.90
13982;DHT22;7065;50.880;5.502;2022-09-30T17:52:12;13.60;99.90
13982;DHT22;7065;50.880;5.502;2022-09-30T17:54:39;13.60;99.90
13982;DHT22;7065;50.880;5.502;2022-09-30T17:57:04;13.50;99.90
13982;DHT22;7065;50.880;5.502;2022-09-30T17:59:31;13.50;99.90
13982;DHT22;7065;50.880;5.502;2022-09-30T18:01:56;13.40;99.90
13982;DHT22;7065;50.880;5.502;2022-09-30T18:04:22;13.40;99.90
13982;DHT22;7065;50.880;5.502;2022-09-30T18:06:53;13.40;99.90
13982;DHT22;7065;50.880;5.502;2022-09-30T18:09:20;13.40;99.90
13982;DHT22;7065;50.880;5.502;2022-09-30T18:11:46;13.40;99.90
13982;DHT22;7065;50.880;5.502;2022-09-30T18:14:12;13.30;99.90
13982;DHT22;7065;50.880;5.502;2022-09-30T18:16:38;13.30;99.90
13982;DHT22;7065;50.880;5.502;2022-09-30T18:19:05;13.20;99.90
13982;DHT22;7065;50.880;5.502;2022-09-30T18:21:33;13.10;99.90
13982;DHT22;7065;50.880;5.502;2022-09-30T18:23:59;13.00;99.90
13982;DHT22;7065;50.880;5.502;2022-09-30T18:26:27;12.90;99.90
13982;DHT22;7065;50.880;5.502;2022-09-30T18:28:56;12.90;99.90
13982;DHT22;7065;50.880;5.502;2022-09-30T18:31:25;12.80;99.90
13982;DHT22;7065;50.880;5.502;2022-09-30T18:33:58;12.70;99.90
13982;DHT22;7065;50.880;5.502;2022-09-30T18:36:25;12.60;99.90
13982;DHT22;7065;50.880;5.502;2022-09-30T18:38:54;12.60;99.90
13982;DHT22;7065;50.880;5.502;2022-09-30T18:41:25;12.50;99.90
13982;DHT22;7065;50.880;5.502;2022-09-30T18:43:52;12.40;99.90
13982;DHT22;7065;50.880;5.502;2022-09-30T18:46:21;12.40;99.90
13982;DHT22;7065;50.880;5.502;2022-09-30T18:48:48;12.40;99.90
13982;DHT22;7065;50.880;5.502;2022-09-30T18:51:14;12.40;99.90
13982;DHT22;7065;50.880;5.502;2022-09-30T18:53:42;12.40;99.90
13982;DHT22;7065;50.880;5.502;2022-09-30T18:56:09;12.30;99.90
13982;DHT22;7065;50.880;5.502;2022-09-30T18:58:34;12.30;99.90
13982;DHT22;7065;50.880;5.502;2022-09-30T19:01:01;12.30;99.90
13982;DHT22;7065;50.880;5.502;2022-09-30T19:03:30;12.30;99.90
13982;DHT22;7065;50.880;5.502;2022-09-30T19:05:57;12.30;99.90
13982;DHT22;7065;50.880;5.502;2022-09-30T19:08:26;12.30;99.90
13982;DHT22;7065;50.880;5.502;2022-09-30T19:10:55;12.30;99.90
13982;DHT22;7065;50.880;5.502;2022-09-30T19:13:20;12.30;99.90
13982;DHT22;7065;50.880;5.502;2022-09-30T19:15:52;12.30;99.90
13982;DHT22;7065;50.880;5.502;2022-09-30T19:18:18;12.20;99.90
13982;DHT22;7065;50.880;5.502;2022-09-30T19:20:45;12.20;99.90
13982;DHT22;7065;50.880;5.502;2022-09-30T19:23:11;12.20;99.90
13982;DHT22;7065;50.880;5.502;2022-09-30T19:25:37;12.20;99.90
13982;DHT22;7065;50.880;5.502;2022-09-30T19:28:06;12.20;99.90
13982;DHT22;7065;50.880;5.502;2022-09-30T19:30:32;12.10;99.90
13982;DHT22;7065;50.880;5.502;2022-09-30T19:32:58;12.20;99.90
13982;DHT22;7065;50.880;5.502;2022-09-30T19:35:25;12.20;99.90
13982;DHT22;7065;50.880;5.502;2022-09-30T19:37:52;12.20;99.90
13982;DHT22;7065;50.880;5.502;2022-09-30T19:40:21;12.20;99.90
13982;DHT22;7065;50.880;5.502;2022-09-30T19:42:47;12.20;99.90